sensor_id;sensor_type;location;lat;lon;timestamp;pressure;altitude;pressure_sealevel;temperature;humidity
79127;BME280;68528;48.814;8.904;2023-04-29T00:01:15;96129.81;;;10.21;92.97
79127;BME280;68528;48.814;8.904;2023-04-29T00:03:40;96122.28;;;10.15;92.50
79127;BME280;68528;48.814;8.904;2023-04-29T00:06:07;96115.22;;;10.14;92.44
79127;BME280;68528;48.814;8.904;2023-04-29T00:08:34;96121.81;;;10.09;93.19
79127;BME280;68528;48.814;8.904;2023-04-29T00:11:04;96112.72;;;10.05;92.92
79127;BME280;68528;48.814;8.904;2023-04-29T00:13:32;96113.09;;;10.04;93.07
79127;BME280;68528;48.814;8.904;2023-04-29T00:15:59;96114.72;;;10.08;93.00
79127;BME280;68528;48.814;8.904;2023-04-29T00:18:24;96111.34;;;10.15;93.78
79127;BME280;68528;48.814;8.904;2023-04-29T00:20:49;96107.03;;;10.14;93.78
79127;BME280;68528;48.814;8.904;2023-04-29T00:23:15;96110.13;;;10.12;93.19
79127;BME280;68528;48.814;8.904;2023-04-29T00:25:40;96114.94;;;10.19;94.39
79127;BME280;68528;48.814;8.904;2023-04-29T00:28:06;96109.41;;;10.15;94.07
79127;BME280;68528;48.814;8.904;2023-04-29T00:30:31;96111.94;;;10.27;94.81
79127;BME280;68528;48.814;8.904;2023-04-29T00:32:57;96110.19;;;10.42;94.88
79127;BME280;68528;48.814;8.904;2023-04-29T00:35:23;96100.53;;;10.52;93.97
79127;BME280;68528;48.814;8.904;2023-04-29T00:37:48;96106.78;;;10.52;93.99
79127;BME280;68528;48.814;8.904;2023-04-29T00:40:14;96102.38;;;10.44;93.95
79127;BME280;68528;48.814;8.904;2023-04-29T00:42:39;96114.97;;;10.49;94.10
79127;BME280;68528;48.814;8.904;2023-04-29T00:45:06;96117.03;;;10.55;94.35
79127;BME280;68528;48.814;8.904;2023-04-29T00:47:32;96117.06;;;10.59;94.09
79127;BME280;68528;48.814;8.904;2023-04-29T00:49:57;96117.53;;;10.64;93.47
79127;BME280;68528;48.814;8.904;2023-04-29T00:52:23;96124.13;;;10.60;93.51
79127;BME280;68528;48.814;8.904;2023-04-29T00:54:49;96115.53;;;10.61;92.92
79127;BME280;68528;48.814;8.904;2023-04-29T00:57:15;96127.13;;;10.51;93.74
79127;BME280;68528;48.814;8.904;2023-04-29T00:59:40;96128.28;;;10.50;93.39
79127;BME280;68528;48.814;8.904;2023-04-29T01:02:06;96123.56;;;10.47;94.04
79127;BME280;68528;48.814;8.904;2023-04-29T01:04:32;96119.69;;;10.52;93.12
79127;BME280;68528;48.814;8.904;2023-04-29T01:07:15;96122.50;;;10.55;93.53
79127;BME280;68528;48.814;8.904;2023-04-29T01:10:02;96118.53;;;10.53;93.17
79127;BME280;68528;48.814;8.904;2023-04-29T01:13:02;96117.03;;;10.55;93.93
79127;BME280;68528;48.814;8.904;2023-04-29T01:15:38;96118.50;;;10.49;93.34
79127;BME280;68528;48.814;8.904;2023-04-29T01:18:19;96123.56;;;10.47;93.22
79127;BME280;68528;48.814;8.904;2023-04-29T01:20:45;96123.22;;;10.52;94.12
79127;BME280;68528;48.814;8.904;2023-04-29T01:23:12;96126.38;;;10.54;93.20
79127;BME280;68528;48.814;8.904;2023-04-29T01:25:37;96127.41;;;10.43;93.56
79127;BME280;68528;48.814;8.904;2023-04-29T01:31:04;96123.75;;;10.35;93.32
79127;BME280;68528;48.814;8.904;2023-04-29T01:33:42;96125.63;;;10.27;93.84
79127;BME280;68528;48.814;8.904;2023-04-29T01:36:21;96122.03;;;10.23;93.50
79127;BME280;68528;48.814;8.904;2023-04-29T01:39:08;96132.19;;;10.23;93.81
79127;BME280;68528;48.814;8.904;2023-04-29T01:41:52;96122.03;;;10.23;93.35
79127;BME280;68528;48.814;8.904;2023-04-29T01:44:25;96122.63;;;10.36;92.55
79127;BME280;68528;48.814;8.904;2023-04-29T01:46:52;96129.22;;;10.35;92.85
79127;BME280;68528;48.814;8.904;2023-04-29T01:49:25;96119.75;;;10.29;92.50
79127;BME280;68528;48.814;8.904;2023-04-29T01:51:51;96125.91;;;10.22;92.56
79127;BME280;68528;48.814;8.904;2023-04-29T01:54:16;96117.66;;;10.19;92.30
79127;BME280;68528;48.814;8.904;2023-04-29T01:56:42;96121.28;;;10.26;92.29
79127;BME280;68528;48.814;8.904;2023-04-29T01:59:11;96121.25;;;10.23;92.56
79127;BME280;68528;48.814;8.904;2023-04-29T02:01:41;96126.84;;;10.30;91.97
79127;BME280;68528;48.814;8.904;2023-04-29T02:04:06;96114.72;;;10.31;91.81
79127;BME280;68528;48.814;8.904;2023-04-29T02:06:31;96115.13;;;10.33;91.14
79127;BME280;68528;48.814;8.904;2023-04-29T02:08:57;96115.78;;;10.23;91.66
79127;BME280;68528;48.814;8.904;2023-04-29T02:11:23;96124.09;;;10.30;91.72
79127;BME280;68528;48.814;8.904;2023-04-29T02:13:48;96122.63;;;10.36;91.50
79127;BME280;68528;48.814;8.904;2023-04-29T02:16:15;96117.94;;;10.37;91.06
79127;BME280;68528;48.814;8.904;2023-04-29T02:18:44;96120.66;;;10.37;91.02
79127;BME280;68528;48.814;8.904;2023-04-29T02:21:18;96121.09;;;10.39;90.66
79127;BME280;68528;48.814;8.904;2023-04-29T02:23:45;96123.81;;;10.39;90.54
79127;BME280;68528;48.814;8.904;2023-04-29T02:26:10;96115.34;;;10.47;89.30
79127;BME280;68528;48.814;8.904;2023-04-29T02:28:36;96124.59;;;10.39;89.85
79127;BME280;68528;48.814;8.904;2023-04-29T02:31:03;96124.09;;;10.30;90.07
79127;BME280;68528;48.814;8.904;2023-04-29T02:33:29;96126.88;;;10.34;89.84
79127;BME280;68528;48.814;8.904;2023-04-29T02:35:54;96129.56;;;10.30;89.26
79127;BME280;68528;48.814;8.904;2023-04-29T02:38:20;96125.88;;;10.19;90.05
79127;BME280;68528;48.814;8.904;2023-04-29T02:40:45;96124.41;;;10.25;89.00
79127;BME280;68528;48.814;8.904;2023-04-29T02:43:12;96122.84;;;10.24;89.44
79127;BME280;68528;48.814;8.904;2023-04-29T02:45:39;96131.72;;;10.17;89.83
79127;BME280;68528;48.814;8.904;2023-04-29T02:48:05;96125.94;;;10.00;89.74
79127;BME280;68528;48.814;8.904;2023-04-29T02:50:31;96126.22;;;9.95;90.25
79127;BME280;68528;48.814;8.904;2023-04-29T02:53:00;96116.16;;;9.99;89.96
79127;BME280;68528;48.814;8.904;2023-04-29T02:55:26;96121.47;;;9.88;90.48
79127;BME280;68528;48.814;8.904;2023-04-29T02:57:51;96121.97;;;9.71;90.48
79127;BME280;68528;48.814;8.904;2023-04-29T03:00:17;96117.88;;;9.62;91.37
79127;BME280;68528;48.814;8.904;2023-04-29T03:02:42;96120.66;;;9.65;91.66
79127;BME280;68528;48.814;8.904;2023-04-29T03:05:08;96115.56;;;9.64;91.50
79127;BME280;68528;48.814;8.904;2023-04-29T03:07:33;96114.53;;;9.72;91.76
79127;BME280;68528;48.814;8.904;2023-04-29T03:09:59;96117.63;;;9.70;91.75
79127;BME280;68528;48.814;8.904;2023-04-29T03:12:24;96118.97;;;9.80;91.34
79127;BME280;68528;48.814;8.904;2023-04-29T03:14:52;96118.66;;;9.62;91.68
79127;BME280;68528;48.814;8.904;2023-04-29T03:17:17;96114.16;;;9.50;91.42
79127;BME280;68528;48.814;8.904;2023-04-29T03:19:43;96119.44;;;9.40;91.86
79127;BME280;68528;48.814;8.904;2023-04-29T03:22:09;96122.97;;;9.40;92.13
79127;BME280;68528;48.814;8.904;2023-04-29T03:24:36;96129.88;;;9.34;92.09
79127;BME280;68528;48.814;8.904;2023-04-29T03:27:02;96123.34;;;9.39;91.75
79127;BME280;68528;48.814;8.904;2023-04-29T03:29:31;96117.34;;;9.33;91.77
79127;BME280;68528;48.814;8.904;2023-04-29T03:31:56;96117.34;;;9.33;91.44
79127;BME280;68528;48.814;8.904;2023-04-29T03:34:23;96118.53;;;9.32;91.48
79127;BME280;68528;48.814;8.904;2023-04-29T03:36:49;96115.41;;;9.34;91.68
79127;BME280;68528;48.814;8.904;2023-04-29T03:39:15;96114.28;;;9.35;90.48
79127;BME280;68528;48.814;8.904;2023-04-29T03:41:42;96112.78;;;9.37;91.18
79127;BME280;68528;48.814;8.904;2023-04-29T03:44:08;96110.63;;;9.27;91.07
79127;BME280;68528;48.814;8.904;2023-04-29T03:46:33;96120.84;;;9.11;91.05
79127;BME280;68528;48.814;8.904;2023-04-29T03:48:59;96115.97;;;9.01;91.96
79127;BME280;68528;48.814;8.904;2023-04-29T03:51:25;96113.53;;;8.96;91.90
79127;BME280;68528;48.814;8.904;2023-04-29T03:53:52;96112.25;;;8.90;91.75
79127;BME280;68528;48.814;8.904;2023-04-29T03:56:19;96112.53;;;8.85;91.53
79127;BME280;68528;48.814;8.904;2023-04-29T03:58:45;96107.50;;;8.87;92.42
79127;BME280;68528;48.814;8.904;2023-04-29T04:01:11;96111.88;;;8.92;92.32
79127;BME280;68528;48.814;8.904;2023-04-29T04:03:37;96119.72;;;8.93;92.24
79127;BME280;68528;48.814;8.904;2023-04-29T04:06:03;96126.16;;;9.04;93.57
79127;BME280;68528;48.814;8.904;2023-04-29T04:08:34;96118.84;;;9.08;92.70
79127;BME280;68528;48.814;8.904;2023-04-29T04:11:05;96125.47;;;9.07;92.75
79127;BME280;68528;48.814;8.904;2023-04-29T04:13:31;96125.00;;;9.24;92.73
79127;BME280;68528;48.814;8.904;2023-04-29T04:15:57;96129.69;;;9.24;92.05
79127;BME280;68528;48.814;8.904;2023-04-29T04:18:23;96139.09;;;9.26;92.70
79127;BME280;68528;48.814;8.904;2023-04-29T04:20:48;96132.91;;;9.29;92.66
79127;BME280;68528;48.814;8.904;2023-04-29T04:23:16;96132.31;;;9.39;92.02
79127;BME280;68528;48.814;8.904;2023-04-29T04:26:10;96142.53;;;9.42;92.25
79127;BME280;68528;48.814;8.904;2023-04-29T04:28:37;96135.72;;;9.33;92.41
79127;BME280;68528;48.814;8.904;2023-04-29T04:31:02;96147.31;;;9.26;92.10
79127;BME280;68528;48.814;8.904;2023-04-29T04:33:29;96149.19;;;9.22;91.62
79127;BME280;68528;48.814;8.904;2023-04-29T04:35:54;96159.09;;;9.11;92.21
79127;BME280;68528;48.814;8.904;2023-04-29T04:38:25;96161.63;;;9.01;92.71
79127;BME280;68528;48.814;8.904;2023-04-29T04:40:52;96166.59;;;8.95;92.48
79127;BME280;68528;48.814;8.904;2023-04-29T04:43:17;96161.84;;;8.92;93.07
79127;BME280;68528;48.814;8.904;2023-04-29T04:46:12;96167.66;;;8.91;93.02
79127;BME280;68528;48.814;8.904;2023-04-29T04:48:39;96165.00;;;8.94;92.47
79127;BME280;68528;48.814;8.904;2023-04-29T04:51:11;96174.56;;;8.85;93.47
79127;BME280;68528;48.814;8.904;2023-04-29T04:53:38;96177.28;;;8.85;93.00
79127;BME280;68528;48.814;8.904;2023-04-29T04:56:04;96171.81;;;8.85;93.06
79127;BME280;68528;48.814;8.904;2023-04-29T04:58:30;96176.50;;;8.84;92.96
79127;BME280;68528;48.814;8.904;2023-04-29T05:01:02;96179.72;;;8.90;92.65
79127;BME280;68528;48.814;8.904;2023-04-29T05:03:36;96181.53;;;9.01;93.69
79127;BME280;68528;48.814;8.904;2023-04-29T05:06:24;96188.56;;;9.21;93.45
79127;BME280;68528;48.814;8.904;2023-04-29T05:08:55;96193.44;;;9.31;93.70
79127;BME280;68528;48.814;8.904;2023-04-29T05:11:26;96197.59;;;9.44;93.91
79127;BME280;68528;48.814;8.904;2023-04-29T05:13:52;96199.75;;;9.55;93.47
79127;BME280;68528;48.814;8.904;2023-04-29T05:16:17;96207.28;;;9.61;93.43
79127;BME280;68528;48.814;8.904;2023-04-29T05:18:43;96203.19;;;9.71;93.54
79127;BME280;68528;48.814;8.904;2023-04-29T05:21:10;96208.78;;;9.78;93.19
79127;BME280;68528;48.814;8.904;2023-04-29T05:23:36;96217.53;;;9.87;93.00
79127;BME280;68528;48.814;8.904;2023-04-29T05:26:06;96209.03;;;9.92;92.47
79127;BME280;68528;48.814;8.904;2023-04-29T05:28:31;96212.34;;;10.01;92.70
79127;BME280;68528;48.814;8.904;2023-04-29T05:30:58;96213.91;;;10.02;92.53
79127;BME280;68528;48.814;8.904;2023-04-29T05:33:24;96222.22;;;10.09;92.21
79127;BME280;68528;48.814;8.904;2023-04-29T05:35:49;96220.22;;;10.06;92.38
79127;BME280;68528;48.814;8.904;2023-04-29T05:38:14;96218.44;;;10.13;92.10
79127;BME280;68528;48.814;8.904;2023-04-29T05:40:40;96231.31;;;10.13;91.69
79127;BME280;68528;48.814;8.904;2023-04-29T05:43:05;96226.66;;;10.13;91.40
79127;BME280;68528;48.814;8.904;2023-04-29T05:45:32;96235.56;;;10.10;91.40
79127;BME280;68528;48.814;8.904;2023-04-29T05:47:57;96248.16;;;10.15;91.31
79127;BME280;68528;48.814;8.904;2023-04-29T05:50:23;96240.94;;;10.26;90.91
79127;BME280;68528;48.814;8.904;2023-04-29T05:52:48;96246.31;;;10.22;90.22
79127;BME280;68528;48.814;8.904;2023-04-29T05:55:16;96247.16;;;10.26;88.90
79127;BME280;68528;48.814;8.904;2023-04-29T05:57:42;96258.88;;;10.23;89.36
79127;BME280;68528;48.814;8.904;2023-04-29T06:00:09;96271.03;;;10.26;89.05
79127;BME280;68528;48.814;8.904;2023-04-29T06:02:35;96268.53;;;10.17;89.33
79127;BME280;68528;48.814;8.904;2023-04-29T06:05:00;96266.16;;;10.16;89.65
79127;BME280;68528;48.814;8.904;2023-04-29T06:07:25;96279.16;;;10.22;89.36
79127;BME280;68528;48.814;8.904;2023-04-29T06:09:51;96278.81;;;10.24;89.74
79127;BME280;68528;48.814;8.904;2023-04-29T06:12:17;96281.97;;;10.26;88.75
79127;BME280;68528;48.814;8.904;2023-04-29T06:14:51;96288.72;;;10.32;89.39
79127;BME280;68528;48.814;8.904;2023-04-29T06:17:17;96286.47;;;10.38;88.69
79127;BME280;68528;48.814;8.904;2023-04-29T06:20:19;96288.25;;;10.49;88.23
79127;BME280;68528;48.814;8.904;2023-04-29T06:22:44;96299.41;;;10.63;87.57
79127;BME280;68528;48.814;8.904;2023-04-29T06:25:09;96295.06;;;10.85;85.95
79127;BME280;68528;48.814;8.904;2023-04-29T06:27:35;96309.25;;;11.17;85.92
79127;BME280;68528;48.814;8.904;2023-04-29T06:30:00;96309.44;;;11.31;85.06
79127;BME280;68528;48.814;8.904;2023-04-29T06:32:25;96310.53;;;11.52;83.60
79127;BME280;68528;48.814;8.904;2023-04-29T06:34:52;96306.19;;;11.51;83.77
79127;BME280;68528;48.814;8.904;2023-04-29T06:37:20;96312.38;;;11.45;84.90
79127;BME280;68528;48.814;8.904;2023-04-29T06:39:46;96319.31;;;11.35;84.42
79127;BME280;68528;48.814;8.904;2023-04-29T06:42:14;96319.84;;;11.18;84.40
79127;BME280;68528;48.814;8.904;2023-04-29T06:44:43;96322.34;;;11.30;84.35
79127;BME280;68528;48.814;8.904;2023-04-29T06:47:09;96327.91;;;11.34;84.20
79127;BME280;68528;48.814;8.904;2023-04-29T06:49:34;96336.59;;;11.39;84.28
79127;BME280;68528;48.814;8.904;2023-04-29T06:52:00;96326.44;;;11.43;83.79
79127;BME280;68528;48.814;8.904;2023-04-29T06:54:28;96338.31;;;11.51;83.49
79127;BME280;68528;48.814;8.904;2023-04-29T06:56:54;96335.84;;;11.42;83.96
79127;BME280;68528;48.814;8.904;2023-04-29T06:59:20;96334.22;;;11.38;83.41
79127;BME280;68528;48.814;8.904;2023-04-29T07:01:45;96334.94;;;11.35;83.35
79127;BME280;68528;48.814;8.904;2023-04-29T07:04:12;96342.09;;;11.43;83.25
79127;BME280;68528;48.814;8.904;2023-04-29T07:06:40;96332.72;;;11.44;82.69
79127;BME280;68528;48.814;8.904;2023-04-29T07:09:06;96337.94;;;11.52;83.23
79127;BME280;68528;48.814;8.904;2023-04-29T07:14:19;96340.59;;;11.71;83.08
79127;BME280;68528;48.814;8.904;2023-04-29T07:16:46;96346.72;;;11.65;82.46
79127;BME280;68528;48.814;8.904;2023-04-29T07:19:12;96349.44;;;11.61;81.91
79127;BME280;68528;48.814;8.904;2023-04-29T07:21:37;96348.94;;;11.56;80.96
79127;BME280;68528;48.814;8.904;2023-04-29T07:24:03;96356.44;;;11.59;81.34
79127;BME280;68528;48.814;8.904;2023-04-29T07:26:29;96364.25;;;11.57;81.63
79127;BME280;68528;48.814;8.904;2023-04-29T07:28:55;96362.78;;;11.63;82.22
79127;BME280;68528;48.814;8.904;2023-04-29T07:31:20;96365.09;;;11.61;82.88
79127;BME280;68528;48.814;8.904;2023-04-29T07:33:46;96362.47;;;11.68;82.48
79127;BME280;68528;48.814;8.904;2023-04-29T07:36:12;96363.56;;;11.63;81.99
79127;BME280;68528;48.814;8.904;2023-04-29T07:38:38;96364.84;;;11.69;82.53
79127;BME280;68528;48.814;8.904;2023-04-29T07:41:04;96362.16;;;11.73;80.54
79127;BME280;68528;48.814;8.904;2023-04-29T07:43:29;96360.72;;;11.82;81.53
79127;BME280;68528;48.814;8.904;2023-04-29T07:45:55;96373.09;;;12.03;81.05
79127;BME280;68528;48.814;8.904;2023-04-29T07:48:25;96370.03;;;12.08;80.88
79127;BME280;68528;48.814;8.904;2023-04-29T07:50:50;96359.34;;;11.99;80.65
79127;BME280;68528;48.814;8.904;2023-04-29T07:53:17;96371.06;;;11.96;80.93
79127;BME280;68528;48.814;8.904;2023-04-29T07:55:43;96379.53;;;11.84;80.90
79127;BME280;68528;48.814;8.904;2023-04-29T07:58:09;96373.84;;;11.70;80.49
79127;BME280;68528;48.814;8.904;2023-04-29T08:00:34;96377.56;;;11.55;81.00
79127;BME280;68528;48.814;8.904;2023-04-29T08:03:00;96377.47;;;11.51;80.89
79127;BME280;68528;48.814;8.904;2023-04-29T08:05:25;96381.88;;;11.56;80.86
79127;BME280;68528;48.814;8.904;2023-04-29T08:07:50;96384.59;;;11.56;80.26
79127;BME280;68528;48.814;8.904;2023-04-29T08:10:18;96384.56;;;11.52;81.51
79127;BME280;68528;48.814;8.904;2023-04-29T08:12:48;96385.59;;;11.67;81.62
79127;BME280;68528;48.814;8.904;2023-04-29T08:15:16;96394.47;;;11.87;80.18
79127;BME280;68528;48.814;8.904;2023-04-29T08:17:42;96379.84;;;12.09;79.27
79127;BME280;68528;48.814;8.904;2023-04-29T08:20:08;96388.72;;;12.28;77.69
79127;BME280;68528;48.814;8.904;2023-04-29T08:22:53;96390.44;;;12.43;77.85
79127;BME280;68528;48.814;8.904;2023-04-29T08:25:20;96394.69;;;12.37;77.96
79127;BME280;68528;48.814;8.904;2023-04-29T08:27:45;96397.28;;;12.23;78.03
79127;BME280;68528;48.814;8.904;2023-04-29T08:30:13;96398.22;;;12.38;77.50
79127;BME280;68528;48.814;8.904;2023-04-29T08:32:39;96395.25;;;12.53;76.43
79127;BME280;68528;48.814;8.904;2023-04-29T08:35:04;96401.16;;;12.55;76.64
79127;BME280;68528;48.814;8.904;2023-04-29T08:37:30;96399.94;;;12.49;74.69
79127;BME280;68528;48.814;8.904;2023-04-29T08:39:55;96398.00;;;12.53;76.13
79127;BME280;68528;48.814;8.904;2023-04-29T08:42:33;96395.41;;;13.08;75.51
79127;BME280;68528;48.814;8.904;2023-04-29T08:45:01;96396.63;;;13.14;74.54
79127;BME280;68528;48.814;8.904;2023-04-29T08:47:31;96402.09;;;13.07;75.56
79127;BME280;68528;48.814;8.904;2023-04-29T08:50:04;96400.97;;;13.15;74.32
79127;BME280;68528;48.814;8.904;2023-04-29T08:52:30;96402.84;;;13.07;74.44
79127;BME280;68528;48.814;8.904;2023-04-29T08:54:59;96405.94;;;13.02;73.82
79127;BME280;68528;48.814;8.904;2023-04-29T08:57:27;96407.38;;;12.86;74.34
79127;BME280;68528;48.814;8.904;2023-04-29T08:59:54;96399.53;;;12.88;75.04
79127;BME280;68528;48.814;8.904;2023-04-29T09:02:27;96410.00;;;12.75;75.83
79127;BME280;68528;48.814;8.904;2023-04-29T09:05:08;96415.03;;;12.70;75.96
79127;BME280;68528;48.814;8.904;2023-04-29T09:07:36;96413.38;;;12.58;75.84
79127;BME280;68528;48.814;8.904;2023-04-29T09:10:05;96412.88;;;12.52;75.37
79127;BME280;68528;48.814;8.904;2023-04-29T09:12:31;96417.38;;;12.31;75.86
79127;BME280;68528;48.814;8.904;2023-04-29T09:14:57;96418.41;;;12.19;74.64
79127;BME280;68528;48.814;8.904;2023-04-29T09:17:42;96426.31;;;12.24;75.48
79127;BME280;68528;48.814;8.904;2023-04-29T09:20:28;96423.22;;;12.29;76.13
79127;BME280;68528;48.814;8.904;2023-04-29T09:22:59;96414.78;;;12.45;76.04
79127;BME280;68528;48.814;8.904;2023-04-29T09:25:25;96417.44;;;12.75;74.79
79127;BME280;68528;48.814;8.904;2023-04-29T09:27:51;96424.84;;;13.07;73.61
79127;BME280;68528;48.814;8.904;2023-04-29T09:30:17;96411.00;;;13.44;71.19
79127;BME280;68528;48.814;8.904;2023-04-29T09:32:44;96424.34;;;13.42;70.88
79127;BME280;68528;48.814;8.904;2023-04-29T09:35:25;96413.63;;;13.84;68.43
79127;BME280;68528;48.814;8.904;2023-04-29T09:37:51;96425.22;;;14.14;69.04
79127;BME280;68528;48.814;8.904;2023-04-29T09:43:21;96425.19;;;14.11;66.99
79127;BME280;68528;48.814;8.904;2023-04-29T09:45:48;96424.81;;;14.16;67.56
79127;BME280;68528;48.814;8.904;2023-04-29T09:48:14;96429.81;;;13.89;67.62
79127;BME280;68528;48.814;8.904;2023-04-29T09:50:43;96441.16;;;13.84;67.04
79127;BME280;68528;48.814;8.904;2023-04-29T09:53:10;96433.94;;;13.62;68.09
79127;BME280;68528;48.814;8.904;2023-04-29T09:55:59;96442.50;;;13.50;68.50
79127;BME280;68528;48.814;8.904;2023-04-29T09:58:32;96440.94;;;13.49;68.82
79127;BME280;68528;48.814;8.904;2023-04-29T10:01:02;96439.28;;;13.41;68.40
79127;BME280;68528;48.814;8.904;2023-04-29T10:03:40;96436.41;;;13.27;69.37
79127;BME280;68528;48.814;8.904;2023-04-29T10:06:07;96433.59;;;13.20;69.21
79127;BME280;68528;48.814;8.904;2023-04-29T10:08:33;96446.66;;;13.30;70.14
79127;BME280;68528;48.814;8.904;2023-04-29T10:11:01;96439.56;;;13.29;68.59
79127;BME280;68528;48.814;8.904;2023-04-29T10:13:27;96433.34;;;13.35;68.91
79127;BME280;68528;48.814;8.904;2023-04-29T10:16:08;96435.75;;;13.41;69.12
79127;BME280;68528;48.814;8.904;2023-04-29T10:18:40;96439.97;;;13.31;68.29
79127;BME280;68528;48.814;8.904;2023-04-29T10:21:07;96443.19;;;13.36;67.15
79127;BME280;68528;48.814;8.904;2023-04-29T10:23:36;96437.78;;;13.51;68.41
79127;BME280;68528;48.814;8.904;2023-04-29T10:26:02;96432.44;;;13.75;65.59
79127;BME280;68528;48.814;8.904;2023-04-29T10:28:31;96433.38;;;13.97;65.37
79127;BME280;68528;48.814;8.904;2023-04-29T10:31:00;96437.50;;;14.31;64.36
79127;BME280;68528;48.814;8.904;2023-04-29T10:33:30;96430.84;;;14.36;63.65
79127;BME280;68528;48.814;8.904;2023-04-29T10:35:56;96436.56;;;14.06;64.00
79127;BME280;68528;48.814;8.904;2023-04-29T10:38:29;96428.22;;;13.92;64.54
79127;BME280;68528;48.814;8.904;2023-04-29T10:41:01;96430.28;;;14.09;62.71
79127;BME280;68528;48.814;8.904;2023-04-29T10:43:30;96425.63;;;14.24;64.01
79127;BME280;68528;48.814;8.904;2023-04-29T10:46:21;96424.47;;;14.25;62.81
79127;BME280;68528;48.814;8.904;2023-04-29T10:48:49;96427.19;;;14.17;63.46
79127;BME280;68528;48.814;8.904;2023-04-29T10:51:40;96428.84;;;14.33;63.41
79127;BME280;68528;48.814;8.904;2023-04-29T10:54:14;96428.06;;;14.32;63.27
79127;BME280;68528;48.814;8.904;2023-04-29T10:56:42;96423.78;;;14.42;64.06
79127;BME280;68528;48.814;8.904;2023-04-29T10:59:12;96426.53;;;14.42;64.58
79127;BME280;68528;48.814;8.904;2023-04-29T11:01:41;96426.63;;;14.77;64.00
79127;BME280;68528;48.814;8.904;2023-04-29T11:04:07;96416.44;;;15.09;61.99
79127;BME280;68528;48.814;8.904;2023-04-29T11:16:57;96409.75;;;15.31;59.55
79127;BME280;68528;48.814;8.904;2023-04-29T11:19:33;96410.88;;;14.81;59.60
79127;BME280;68528;48.814;8.904;2023-04-29T11:24:35;96402.97;;;14.62;61.78
79127;BME280;68528;48.814;8.904;2023-04-29T11:27:02;96393.06;;;14.40;61.76
79127;BME280;68528;48.814;8.904;2023-04-29T11:29:31;96397.78;;;14.43;61.67
79127;BME280;68528;48.814;8.904;2023-04-29T11:32:06;96402.53;;;14.42;63.04
79127;BME280;68528;48.814;8.904;2023-04-29T11:34:32;96394.66;;;14.44;63.04
79127;BME280;68528;48.814;8.904;2023-04-29T11:36:57;96409.63;;;14.54;62.05
79127;BME280;68528;48.814;8.904;2023-04-29T11:39:23;96405.69;;;14.51;62.39
79127;BME280;68528;48.814;8.904;2023-04-29T11:41:48;96407.16;;;14.28;62.54
79127;BME280;68528;48.814;8.904;2023-04-29T11:44:20;96406.66;;;14.01;63.82
79127;BME280;68528;48.814;8.904;2023-04-29T11:46:47;96424.06;;;13.54;66.10
79127;BME280;68528;48.814;8.904;2023-04-29T11:49:13;96424.50;;;13.12;67.94
79127;BME280;68528;48.814;8.904;2023-04-29T11:51:39;96429.56;;;13.07;68.39
79127;BME280;68528;48.814;8.904;2023-04-29T11:54:05;96426.16;;;13.20;68.12
79127;BME280;68528;48.814;8.904;2023-04-29T11:56:31;96428.47;;;13.15;68.60
79127;BME280;68528;48.814;8.904;2023-04-29T11:58:56;96426.72;;;13.40;68.56
79127;BME280;68528;48.814;8.904;2023-04-29T12:01:22;96429.56;;;13.54;66.89
79127;BME280;68528;48.814;8.904;2023-04-29T12:03:49;96437.06;;;13.57;66.43
79127;BME280;68528;48.814;8.904;2023-04-29T12:06:15;96434.38;;;13.17;67.43
79127;BME280;68528;48.814;8.904;2023-04-29T12:08:41;96428.22;;;13.34;68.12
79127;BME280;68528;48.814;8.904;2023-04-29T12:11:07;96433.13;;;13.58;68.52
79127;BME280;68528;48.814;8.904;2023-04-29T12:13:33;96434.56;;;13.42;66.88
79127;BME280;68528;48.814;8.904;2023-04-29T12:16:02;96441.09;;;13.23;67.85
79127;BME280;68528;48.814;8.904;2023-04-29T12:18:28;96444.56;;;13.13;68.18
79127;BME280;68528;48.814;8.904;2023-04-29T12:20:55;96441.84;;;13.20;68.86
79127;BME280;68528;48.814;8.904;2023-04-29T12:23:22;96444.25;;;13.25;67.97
79127;BME280;68528;48.814;8.904;2023-04-29T12:25:58;96437.59;;;13.26;68.67
79127;BME280;68528;48.814;8.904;2023-04-29T12:28:25;96443.91;;;13.30;68.10
79127;BME280;68528;48.814;8.904;2023-04-29T12:30:51;96451.69;;;13.21;67.82
79127;BME280;68528;48.814;8.904;2023-04-29T12:35:47;96447.19;;;13.46;67.83
79127;BME280;68528;48.814;8.904;2023-04-29T12:38:26;96449.53;;;13.44;67.07
79127;BME280;68528;48.814;8.904;2023-04-29T12:40:53;96452.75;;;13.53;68.00
79127;BME280;68528;48.814;8.904;2023-04-29T12:43:19;96452.75;;;13.53;68.27
79127;BME280;68528;48.814;8.904;2023-04-29T12:45:44;96441.97;;;13.85;67.33
79127;BME280;68528;48.814;8.904;2023-04-29T12:48:10;96448.72;;;13.98;64.95
79127;BME280;68528;48.814;8.904;2023-04-29T12:50:38;96448.28;;;13.89;65.25
79127;BME280;68528;48.814;8.904;2023-04-29T12:53:05;96453.78;;;13.92;66.26
79127;BME280;68528;48.814;8.904;2023-04-29T12:55:34;96449.34;;;13.74;66.21
79127;BME280;68528;48.814;8.904;2023-04-29T12:58:01;96452.81;;;13.64;67.71
79127;BME280;68528;48.814;8.904;2023-04-29T13:00:27;96451.94;;;13.49;67.18
79127;BME280;68528;48.814;8.904;2023-04-29T13:02:54;96461.00;;;13.53;66.90
79127;BME280;68528;48.814;8.904;2023-04-29T13:05:20;96455.16;;;13.62;67.84
79127;BME280;68528;48.814;8.904;2023-04-29T13:07:46;96453.56;;;13.57;67.61
79127;BME280;68528;48.814;8.904;2023-04-29T13:10:11;96460.63;;;13.58;65.92
79127;BME280;68528;48.814;8.904;2023-04-29T13:12:38;96461.41;;;13.55;67.03
79127;BME280;68528;48.814;8.904;2023-04-29T13:15:04;96456.78;;;13.66;67.16
79127;BME280;68528;48.814;8.904;2023-04-29T13:17:30;96456.13;;;13.90;66.06
79127;BME280;68528;48.814;8.904;2023-04-29T13:20:01;96455.81;;;14.02;66.42
79127;BME280;68528;48.814;8.904;2023-04-29T13:22:50;96467.88;;;13.80;65.93
79127;BME280;68528;48.814;8.904;2023-04-29T13:25:15;96463.25;;;13.41;67.61
79127;BME280;68528;48.814;8.904;2023-04-29T13:27:41;96461.44;;;13.59;67.62
79127;BME280;68528;48.814;8.904;2023-04-29T13:30:08;96464.72;;;13.75;66.70
79127;BME280;68528;48.814;8.904;2023-04-29T13:32:35;96465.88;;;13.77;66.21